sensor_id;sensor_type;location;lat;lon;timestamp;pressure;altitude;pressure_sealevel;temperature;humidity
75650;BME280;64245;51.282;22.494;2022-11-15T00:02:10;99699.69;;;5.05;91.18
75650;BME280;64245;51.282;22.494;2022-11-15T00:04:35;99690.84;;;5.05;91.97
75650;BME280;64245;51.282;22.494;2022-11-15T00:07:01;99707.41;;;5.10;91.93
75650;BME280;64245;51.282;22.494;2022-11-15T00:09:27;99698.09;;;5.03;92.57
75650;BME280;64245;51.282;22.494;2022-11-15T00:11:52;99685.88;;;5.13;91.87
75650;BME280;64245;51.282;22.494;2022-11-15T00:14:18;99679.19;;;5.06;92.12
75650;BME280;64245;51.282;22.494;2022-11-15T00:16:44;99689.53;;;5.25;91.74
75650;BME280;64245;51.282;22.494;2022-11-15T00:19:10;99667.88;;;5.02;92.66
75650;BME280;64245;51.282;22.494;2022-11-15T00:21:36;99665.66;;;5.09;92.08
75650;BME280;64245;51.282;22.494;2022-11-15T00:24:01;99679.66;;;5.12;92.62
75650;BME280;64245;51.282;22.494;2022-11-15T00:26:27;99660.28;;;4.82;92.72
75650;BME280;64245;51.282;22.494;2022-11-15T00:28:53;99665.25;;;4.88;92.89
75650;BME280;64245;51.282;22.494;2022-11-15T00:31:19;99679.19;;;5.06;92.47
75650;BME280;64245;51.282;22.494;2022-11-15T00:33:44;99674.47;;;4.97;93.48
75650;BME280;64245;51.282;22.494;2022-11-15T00:36:11;99668.69;;;5.17;92.12
75650;BME280;64245;51.282;22.494;2022-11-15T00:38:38;99667.47;;;5.08;92.23
75650;BME280;64245;51.282;22.494;2022-11-15T00:41:06;99672.25;;;5.03;93.10
75650;BME280;64245;51.282;22.494;2022-11-15T00:43:32;99653.13;;;4.97;92.99
75650;BME280;64245;51.282;22.494;2022-11-15T00:45:58;99676.91;;;5.14;93.04
75650;BME280;64245;51.282;22.494;2022-11-15T00:48:24;99651.34;;;5.10;92.53
75650;BME280;64245;51.282;22.494;2022-11-15T00:50:50;99668.16;;;5.25;92.21
75650;BME280;64245;51.282;22.494;2022-11-15T00:53:16;99649.03;;;4.91;92.50
75650;BME280;64245;51.282;22.494;2022-11-15T00:55:43;99654.00;;;4.97;93.82
75650;BME280;64245;51.282;22.494;2022-11-15T00:58:09;99649.78;;;5.20;92.38
75650;BME280;64245;51.282;22.494;2022-11-15T01:00:35;99655.75;;;5.11;93.19
75650;BME280;64245;51.282;22.494;2022-11-15T01:03:01;99653.94;;;5.11;93.50
75650;BME280;64245;51.282;22.494;2022-11-15T01:05:27;99639.44;;;5.15;92.76
75650;BME280;64245;51.282;22.494;2022-11-15T01:07:56;99638.88;;;5.10;92.71
75650;BME280;64245;51.282;22.494;2022-11-15T01:10:23;99633.13;;;4.90;93.81
75650;BME280;64245;51.282;22.494;2022-11-15T01:12:49;99624.91;;;4.93;93.71
75650;BME280;64245;51.282;22.494;2022-11-15T01:15:15;99618.88;;;4.76;94.71
75650;BME280;64245;51.282;22.494;2022-11-15T01:17:41;99632.06;;;4.92;93.86
75650;BME280;64245;51.282;22.494;2022-11-15T01:20:07;99613.50;;;4.91;93.32
75650;BME280;64245;51.282;22.494;2022-11-15T01:22:33;99624.56;;;5.11;93.19
75650;BME280;64245;51.282;22.494;2022-11-15T01:24:59;99617.81;;;5.06;92.99
75650;BME280;64245;51.282;22.494;2022-11-15T01:27:25;99617.22;;;4.88;94.84
75650;BME280;64245;51.282;22.494;2022-11-15T01:29:51;99603.31;;;4.83;94.49
75650;BME280;64245;51.282;22.494;2022-11-15T01:32:17;99602.00;;;4.76;95.05
75650;BME280;64245;51.282;22.494;2022-11-15T01:34:43;99605.34;;;4.79;95.04
75650;BME280;64245;51.282;22.494;2022-11-15T01:37:09;99603.72;;;4.77;95.13
75650;BME280;64245;51.282;22.494;2022-11-15T01:39:35;99590.03;;;4.96;93.97
75650;BME280;64245;51.282;22.494;2022-11-15T01:42:01;99585.00;;;4.91;94.16
75650;BME280;64245;51.282;22.494;2022-11-15T01:47:06;99590.13;;;4.94;94.09
75650;BME280;64245;51.282;22.494;2022-11-15T01:49:35;99598.56;;;5.01;94.35
75650;BME280;64245;51.282;22.494;2022-11-15T01:52:05;99598.44;;;4.90;94.82
75650;BME280;64245;51.282;22.494;2022-11-15T01:54:32;99590.91;;;4.82;94.82
75650;BME280;64245;51.282;22.494;2022-11-15T01:57:07;99582.81;;;4.83;94.64
75650;BME280;64245;51.282;22.494;2022-11-15T01:59:36;99581.91;;;4.70;94.26
75650;BME280;64245;51.282;22.494;2022-11-15T02:02:03;99579.13;;;4.59;95.09
75650;BME280;64245;51.282;22.494;2022-11-15T02:04:32;99574.31;;;4.64;94.34
75650;BME280;64245;51.282;22.494;2022-11-15T02:07:02;99586.78;;;4.64;95.18
75650;BME280;64245;51.282;22.494;2022-11-15T02:09:29;99574.25;;;4.51;95.74
75650;BME280;64245;51.282;22.494;2022-11-15T02:11:55;99562.88;;;4.35;95.68
75650;BME280;64245;51.282;22.494;2022-11-15T02:14:23;99555.88;;;4.47;95.44
75650;BME280;64245;51.282;22.494;2022-11-15T02:33:30;99558.41;;;4.36;97.68
75650;BME280;64245;51.282;22.494;2022-11-15T02:36:02;99531.78;;;4.48;96.51
75650;BME280;64245;51.282;22.494;2022-11-15T02:38:47;99552.69;;;4.69;95.32
75650;BME280;64245;51.282;22.494;2022-11-15T02:41:43;99521.22;;;4.47;95.68
75650;BME280;64245;51.282;22.494;2022-11-15T02:44:15;99536.78;;;4.67;95.54
75650;BME280;64245;51.282;22.494;2022-11-15T02:46:53;99551.34;;;4.89;94.61
75650;BME280;64245;51.282;22.494;2022-11-15T02:49:47;99542.31;;;4.64;95.49
75650;BME280;64245;51.282;22.494;2022-11-15T02:52:17;99543.78;;;4.56;96.21
75650;BME280;64245;51.282;22.494;2022-11-15T02:54:59;99537.84;;;4.38;97.11
75650;BME280;64245;51.282;22.494;2022-11-15T02:57:37;99540.06;;;4.58;96.57
75650;BME280;64245;51.282;22.494;2022-11-15T03:00:15;99524.16;;;4.57;95.07
75650;BME280;64245;51.282;22.494;2022-11-15T03:05:37;99526.16;;;4.53;95.62
75650;BME280;64245;51.282;22.494;2022-11-15T03:08:32;99532.34;;;4.54;97.01
75650;BME280;64245;51.282;22.494;2022-11-15T03:11:14;99529.50;;;4.57;96.23
75650;BME280;64245;51.282;22.494;2022-11-15T03:21:46;99500.47;;;4.11;96.78
75650;BME280;64245;51.282;22.494;2022-11-15T03:24:15;99512.69;;;4.01;98.06
75650;BME280;64245;51.282;22.494;2022-11-15T03:26:44;99505.03;;;4.09;97.81
75650;BME280;64245;51.282;22.494;2022-11-15T03:29:16;99500.94;;;4.18;96.95
75650;BME280;64245;51.282;22.494;2022-11-15T03:31:46;99508.28;;;4.14;97.89
75650;BME280;64245;51.282;22.494;2022-11-15T03:34:31;99503.53;;;4.05;98.08
75650;BME280;64245;51.282;22.494;2022-11-15T03:36:58;99505.03;;;4.09;97.95
75650;BME280;64245;51.282;22.494;2022-11-15T03:39:24;99507.03;;;4.20;97.65
75650;BME280;64245;51.282;22.494;2022-11-15T03:44:57;99493.84;;;3.90;98.10
75650;BME280;64245;51.282;22.494;2022-11-15T03:47:38;99485.47;;;3.96;97.42
75650;BME280;64245;51.282;22.494;2022-11-15T03:50:16;99485.09;;;3.88;97.99
75650;BME280;64245;51.282;22.494;2022-11-15T03:52:48;99492.13;;;4.03;97.21
75650;BME280;64245;51.282;22.494;2022-11-15T03:55:19;99495.84;;;4.27;96.61
75650;BME280;64245;51.282;22.494;2022-11-15T03:57:50;99484.75;;;4.21;96.08
75650;BME280;64245;51.282;22.494;2022-11-15T04:00:17;99475.34;;;4.15;96.88
75650;BME280;64245;51.282;22.494;2022-11-15T04:02:43;99480.09;;;4.10;97.36
75650;BME280;64245;51.282;22.494;2022-11-15T04:05:09;99479.97;;;3.99;98.29
75650;BME280;64245;51.282;22.494;2022-11-15T04:07:35;99453.31;;;3.99;97.78
75650;BME280;64245;51.282;22.494;2022-11-15T04:10:00;99464.88;;;4.12;97.22
75650;BME280;64245;51.282;22.494;2022-11-15T04:12:33;99458.00;;;4.22;97.13
75650;BME280;64245;51.282;22.494;2022-11-15T04:15:07;99454.25;;;4.25;97.39
75650;BME280;64245;51.282;22.494;2022-11-15T04:17:51;99455.84;;;4.41;96.36
75650;BME280;64245;51.282;22.494;2022-11-15T04:20:29;99457.25;;;4.20;97.44
75650;BME280;64245;51.282;22.494;2022-11-15T04:23:22;99443.41;;;4.01;98.65
75650;BME280;64245;51.282;22.494;2022-11-15T04:26:10;99441.75;;;4.12;98.03
75650;BME280;64245;51.282;22.494;2022-11-15T04:28:37;99418.25;;;4.05;98.17
75650;BME280;64245;51.282;22.494;2022-11-15T04:31:26;99425.41;;;4.04;98.00
75650;BME280;64245;51.282;22.494;2022-11-15T04:33:52;99431.47;;;4.06;97.12
75650;BME280;64245;51.282;22.494;2022-11-15T04:36:19;99441.28;;;3.79;98.04
75650;BME280;64245;51.282;22.494;2022-11-15T04:39:03;99411.69;;;3.69;98.42
75650;BME280;64245;51.282;22.494;2022-11-15T04:41:29;99425.97;;;3.83;98.26
75650;BME280;64245;51.282;22.494;2022-11-15T04:43:55;99416.34;;;3.66;98.60
75650;BME280;64245;51.282;22.494;2022-11-15T04:46:21;99407.75;;;3.62;98.32
75650;BME280;64245;51.282;22.494;2022-11-15T04:48:47;99411.50;;;3.72;98.23
75650;BME280;64245;51.282;22.494;2022-11-15T04:51:13;99409.88;;;3.70;98.69
75650;BME280;64245;51.282;22.494;2022-11-15T04:53:39;99418.00;;;3.95;98.17
75650;BME280;64245;51.282;22.494;2022-11-15T04:56:05;99432.28;;;3.94;98.24
75650;BME280;64245;51.282;22.494;2022-11-15T04:58:31;99397.25;;;3.73;98.78
75650;BME280;64245;51.282;22.494;2022-11-15T05:00:56;99422.03;;;3.88;99.08
75650;BME280;64245;51.282;22.494;2022-11-15T05:03:22;99421.25;;;4.00;97.85
75650;BME280;64245;51.282;22.494;2022-11-15T05:06:07;99405.44;;;3.97;98.26
75650;BME280;64245;51.282;22.494;2022-11-15T05:08:33;99398.97;;;4.01;98.29
75650;BME280;64245;51.282;22.494;2022-11-15T05:10:58;99404.69;;;3.95;98.45
75650;BME280;64245;51.282;22.494;2022-11-15T05:13:25;99411.94;;;3.93;98.90
75650;BME280;64245;51.282;22.494;2022-11-15T05:15:50;99384.81;;;3.87;99.17
75650;BME280;64245;51.282;22.494;2022-11-15T05:18:16;99398.38;;;3.84;98.72
75650;BME280;64245;51.282;22.494;2022-11-15T05:20:42;99396.22;;;3.89;99.84
75650;BME280;64245;51.282;22.494;2022-11-15T05:23:08;99401.94;;;3.97;98.55
75650;BME280;64245;51.282;22.494;2022-11-15T05:25:35;99383.09;;;3.86;99.00
75650;BME280;64245;51.282;22.494;2022-11-15T05:28:01;99375.78;;;3.89;98.40
75650;BME280;64245;51.282;22.494;2022-11-15T05:30:27;99399.56;;;3.92;98.73
75650;BME280;64245;51.282;22.494;2022-11-15T05:32:53;99400.19;;;3.83;99.11
75650;BME280;64245;51.282;22.494;2022-11-15T05:35:30;99361.63;;;3.62;99.25
75650;BME280;64245;51.282;22.494;2022-11-15T05:37:58;99375.69;;;3.64;99.45
75650;BME280;64245;51.282;22.494;2022-11-15T05:40:24;99384.69;;;3.75;98.60
75650;BME280;64245;51.282;22.494;2022-11-15T05:42:50;99379.44;;;3.74;98.72
75650;BME280;64245;51.282;22.494;2022-11-15T05:45:16;99365.38;;;3.72;99.05
75650;BME280;64245;51.282;22.494;2022-11-15T05:47:42;99368.50;;;3.78;98.85
75650;BME280;64245;51.282;22.494;2022-11-15T05:50:12;99363.47;;;3.74;98.61
75650;BME280;64245;51.282;22.494;2022-11-15T05:52:39;99384.78;;;3.74;98.84
75650;BME280;64245;51.282;22.494;2022-11-15T05:55:06;99347.78;;;3.42;99.98
75650;BME280;64245;51.282;22.494;2022-11-15T05:57:33;99374.31;;;3.71;99.40
75650;BME280;64245;51.282;22.494;2022-11-15T05:59:59;99352.44;;;3.66;99.57
75650;BME280;64245;51.282;22.494;2022-11-15T06:02:25;99351.41;;;3.68;99.46
75650;BME280;64245;51.282;22.494;2022-11-15T06:04:50;99345.22;;;3.68;99.77
75650;BME280;64245;51.282;22.494;2022-11-15T06:07:17;99358.81;;;3.77;99.38
75650;BME280;64245;51.282;22.494;2022-11-15T06:09:42;99346.59;;;3.61;99.78
75650;BME280;64245;51.282;22.494;2022-11-15T06:12:08;99358.25;;;3.72;99.58
75650;BME280;64245;51.282;22.494;2022-11-15T06:14:34;99375.72;;;3.76;99.13
75650;BME280;64245;51.282;22.494;2022-11-15T06:17:00;99383.53;;;3.79;98.49
75650;BME280;64245;51.282;22.494;2022-11-15T06:19:25;99359.91;;;3.61;98.52
75650;BME280;64245;51.282;22.494;2022-11-15T06:21:51;99374.97;;;3.74;98.69
75650;BME280;64245;51.282;22.494;2022-11-15T06:24:17;99362.66;;;3.59;98.59
75650;BME280;64245;51.282;22.494;2022-11-15T06:26:42;99355.25;;;3.50;98.68
75650;BME280;64245;51.282;22.494;2022-11-15T06:29:08;99359.63;;;3.51;99.02
75650;BME280;64245;51.282;22.494;2022-11-15T06:31:34;99370.28;;;3.51;98.72
75650;BME280;64245;51.282;22.494;2022-11-15T06:34:00;99372.06;;;3.51;99.05
75650;BME280;64245;51.282;22.494;2022-11-15T06:36:26;99366.94;;;3.62;99.10
75650;BME280;64245;51.282;22.494;2022-11-15T06:38:52;99358.56;;;3.54;98.63
75650;BME280;64245;51.282;22.494;2022-11-15T06:41:17;99356.94;;;3.65;99.40
75650;BME280;64245;51.282;22.494;2022-11-15T06:43:43;99363.72;;;3.57;99.37
75650;BME280;64245;51.282;22.494;2022-11-15T06:46:09;99371.94;;;3.66;98.34
75650;BME280;64245;51.282;22.494;2022-11-15T06:48:35;99370.59;;;3.73;98.52
75650;BME280;64245;51.282;22.494;2022-11-15T06:51:03;99356.66;;;3.56;98.67
75650;BME280;64245;51.282;22.494;2022-11-15T06:53:31;99347.16;;;3.52;98.81
75650;BME280;64245;51.282;22.494;2022-11-15T06:56:00;99371.50;;;3.87;98.24
75650;BME280;64245;51.282;22.494;2022-11-15T06:58:27;99349.38;;;3.45;98.60
75650;BME280;64245;51.282;22.494;2022-11-15T07:00:53;99367.59;;;3.51;99.05
75650;BME280;64245;51.282;22.494;2022-11-15T07:03:19;99373.97;;;3.63;98.62
75650;BME280;64245;51.282;22.494;2022-11-15T07:05:55;99346.97;;;3.55;98.96
75650;BME280;64245;51.282;22.494;2022-11-15T07:08:22;99356.78;;;3.54;98.84
75650;BME280;64245;51.282;22.494;2022-11-15T07:10:48;99357.81;;;3.52;99.07
75650;BME280;64245;51.282;22.494;2022-11-15T07:13:15;99359.34;;;3.56;98.72
75650;BME280;64245;51.282;22.494;2022-11-15T07:15:40;99361.94;;;3.70;99.07
75650;BME280;64245;51.282;22.494;2022-11-15T07:18:06;99383.91;;;3.73;98.45
75650;BME280;64245;51.282;22.494;2022-11-15T07:20:32;99377.25;;;3.80;98.14
75650;BME280;64245;51.282;22.494;2022-11-15T07:23:00;99347.50;;;3.74;97.32
75650;BME280;64245;51.282;22.494;2022-11-15T07:25:26;99365.09;;;3.76;97.60
75650;BME280;64245;51.282;22.494;2022-11-15T07:27:56;99369.25;;;3.80;97.78
75650;BME280;64245;51.282;22.494;2022-11-15T07:30:22;99369.00;;;3.71;98.08
75650;BME280;64245;51.282;22.494;2022-11-15T07:32:53;99370.47;;;3.62;98.44
75650;BME280;64245;51.282;22.494;2022-11-15T07:35:18;99365.03;;;3.64;99.03
75650;BME280;64245;51.282;22.494;2022-11-15T07:37:53;99357.13;;;3.89;98.23
75650;BME280;64245;51.282;22.494;2022-11-15T07:40:18;99358.50;;;3.82;98.12
75650;BME280;64245;51.282;22.494;2022-11-15T07:42:47;99346.91;;;3.69;98.16
75650;BME280;64245;51.282;22.494;2022-11-15T07:45:23;99362.94;;;4.08;97.88
75650;BME280;64245;51.282;22.494;2022-11-15T07:47:52;99358.28;;;4.12;98.30
75650;BME280;64245;51.282;22.494;2022-11-15T07:50:18;99365.41;;;4.11;97.74
75650;BME280;64245;51.282;22.494;2022-11-15T07:52:46;99349.19;;;4.02;98.26
75650;BME280;64245;51.282;22.494;2022-11-15T07:55:12;99350.44;;;4.23;97.65
75650;BME280;64245;51.282;22.494;2022-11-15T07:57:38;99355.53;;;4.26;97.48
75650;BME280;64245;51.282;22.494;2022-11-15T08:00:04;99344.13;;;4.24;97.43
75650;BME280;64245;51.282;22.494;2022-11-15T08:02:31;99332.59;;;4.24;96.71
75650;BME280;64245;51.282;22.494;2022-11-15T08:04:56;99333.34;;;4.26;96.79
75650;BME280;64245;51.282;22.494;2022-11-15T08:07:22;99332.94;;;4.44;95.93
75650;BME280;64245;51.282;22.494;2022-11-15T08:09:48;99333.72;;;4.59;95.45
75650;BME280;64245;51.282;22.494;2022-11-15T08:12:14;99352.31;;;4.61;95.32
75650;BME280;64245;51.282;22.494;2022-11-15T08:14:40;99328.75;;;4.15;96.21
75650;BME280;64245;51.282;22.494;2022-11-15T08:17:06;99333.38;;;4.38;96.41
75650;BME280;64245;51.282;22.494;2022-11-15T08:19:31;99309.81;;;4.32;96.01
75650;BME280;64245;51.282;22.494;2022-11-15T08:21:57;99332.78;;;4.73;95.10
75650;BME280;64245;51.282;22.494;2022-11-15T08:24:23;99330.94;;;4.73;95.33
75650;BME280;64245;51.282;22.494;2022-11-15T08:26:49;99329.34;;;4.71;94.35
75650;BME280;64245;51.282;22.494;2022-11-15T08:29:15;99339.06;;;4.84;93.87
75650;BME280;64245;51.282;22.494;2022-11-15T08:31:41;99333.50;;;4.75;93.89
75650;BME280;64245;51.282;22.494;2022-11-15T08:34:07;99330.28;;;4.44;94.65
75650;BME280;64245;51.282;22.494;2022-11-15T08:36:33;99329.44;;;4.44;94.88
75650;BME280;64245;51.282;22.494;2022-11-15T08:38:59;99308.59;;;4.24;95.39
75650;BME280;64245;51.282;22.494;2022-11-15T08:41:33;99317.91;;;4.31;95.16
75650;BME280;64245;51.282;22.494;2022-11-15T08:44:01;99344.75;;;4.28;95.96
75650;BME280;64245;51.282;22.494;2022-11-15T08:46:27;99337.31;;;4.33;95.67
75650;BME280;64245;51.282;22.494;2022-11-15T08:48:52;99336.34;;;4.21;95.79
75650;BME280;64245;51.282;22.494;2022-11-15T08:51:18;99338.38;;;4.30;95.51
75650;BME280;64245;51.282;22.494;2022-11-15T08:53:44;99329.13;;;4.36;95.22
75650;BME280;64245;51.282;22.494;2022-11-15T08:56:12;99333.28;;;4.53;94.92
75650;BME280;64245;51.282;22.494;2022-11-15T08:58:39;99328.50;;;4.58;93.91
75650;BME280;64245;51.282;22.494;2022-11-15T09:01:05;99337.00;;;4.63;93.94
75650;BME280;64245;51.282;22.494;2022-11-15T09:03:31;99306.06;;;4.47;93.85
75650;BME280;64245;51.282;22.494;2022-11-15T09:05:58;99302.44;;;4.48;93.71
75650;BME280;64245;51.282;22.494;2022-11-15T09:08:25;99316.53;;;4.63;93.83
75650;BME280;64245;51.282;22.494;2022-11-15T09:10:51;99321.84;;;4.25;95.30
75650;BME280;64245;51.282;22.494;2022-11-15T09:13:17;99315.25;;;4.31;95.92
75650;BME280;64245;51.282;22.494;2022-11-15T09:15:43;99309.94;;;4.56;94.55
75650;BME280;64245;51.282;22.494;2022-11-15T09:18:09;99312.28;;;4.61;94.12
75650;BME280;64245;51.282;22.494;2022-11-15T09:20:37;99290.72;;;4.64;94.28
75650;BME280;64245;51.282;22.494;2022-11-15T09:23:03;99307.69;;;4.75;94.59
75650;BME280;64245;51.282;22.494;2022-11-15T09:25:30;99295.34;;;4.62;94.28
75650;BME280;64245;51.282;22.494;2022-11-15T09:27:56;99289.84;;;4.63;94.23
75650;BME280;64245;51.282;22.494;2022-11-15T09:30:23;99304.81;;;4.78;94.62
75650;BME280;64245;51.282;22.494;2022-11-15T09:32:49;99288.47;;;4.83;93.13
75650;BME280;64245;51.282;22.494;2022-11-15T09:35:15;99286.13;;;4.91;93.58
75650;BME280;64245;51.282;22.494;2022-11-15T09:37:41;99299.88;;;4.98;94.14
75650;BME280;64245;51.282;22.494;2022-11-15T09:40:13;99282.06;;;4.47;94.70
75650;BME280;64245;51.282;22.494;2022-11-15T09:43:05;99290.84;;;4.75;95.02
75650;BME280;64245;51.282;22.494;2022-11-15T09:45:37;99291.38;;;4.80;93.71
75650;BME280;64245;51.282;22.494;2022-11-15T09:50:51;99274.50;;;4.79;93.50
75650;BME280;64245;51.282;22.494;2022-11-15T09:56:21;99274.97;;;5.10;92.29
75650;BME280;64245;51.282;22.494;2022-11-15T10:04:03;99251.63;;;4.88;93.97
75650;BME280;64245;51.282;22.494;2022-11-15T10:06:31;99260.81;;;4.84;93.63
75650;BME280;64245;51.282;22.494;2022-11-15T10:09:03;99228.94;;;4.70;93.82
75650;BME280;64245;51.282;22.494;2022-11-15T10:11:34;99256.19;;;5.11;92.83
75650;BME280;64245;51.282;22.494;2022-11-15T10:14:03;99246.47;;;5.10;92.59
75650;BME280;64245;51.282;22.494;2022-11-15T10:22:26;99213.31;;;4.89;93.37
75650;BME280;64245;51.282;22.494;2022-11-15T10:27:34;99207.41;;;4.60;93.58
75650;BME280;64245;51.282;22.494;2022-11-15T10:30:01;99229.91;;;5.05;93.41
75650;BME280;64245;51.282;22.494;2022-11-15T10:32:29;99209.38;;;4.95;93.06
75650;BME280;64245;51.282;22.494;2022-11-15T10:34:58;99200.78;;;5.02;92.50
75650;BME280;64245;51.282;22.494;2022-11-15T10:37:31;99190.81;;;5.17;92.88
75650;BME280;64245;51.282;22.494;2022-11-15T10:40:15;99206.44;;;5.34;92.45
75650;BME280;64245;51.282;22.494;2022-11-15T10:42:41;99208.31;;;5.45;92.80
75650;BME280;64245;51.282;22.494;2022-11-15T10:45:25;99207.28;;;5.11;93.29
75650;BME280;64245;51.282;22.494;2022-11-15T10:47:52;99193.25;;;5.44;92.17
75650;BME280;64245;51.282;22.494;2022-11-15T10:50:30;99171.44;;;5.50;91.26
75650;BME280;64245;51.282;22.494;2022-11-15T10:52:58;99186.94;;;5.45;91.70
75650;BME280;64245;51.282;22.494;2022-11-15T10:55:30;99154.09;;;5.55;91.22
75650;BME280;64245;51.282;22.494;2022-11-15T10:58:27;99183.28;;;5.70;91.48
75650;BME280;64245;51.282;22.494;2022-11-15T11:00:55;99158.31;;;5.58;90.50
75650;BME280;64245;51.282;22.494;2022-11-15T11:03:36;99175.88;;;5.73;91.68
75650;BME280;64245;51.282;22.494;2022-11-15T11:06:16;99174.09;;;5.50;92.37
75650;BME280;64245;51.282;22.494;2022-11-15T11:09:01;99149.53;;;5.80;89.79
75650;BME280;64245;51.282;22.494;2022-11-15T11:11:47;99171.03;;;5.78;90.61
75650;BME280;64245;51.282;22.494;2022-11-15T11:14:24;99165.44;;;5.81;91.36
75650;BME280;64245;51.282;22.494;2022-11-15T11:17:21;99157.53;;;5.80;89.80
75650;BME280;64245;51.282;22.494;2022-11-15T11:20:07;99151.84;;;5.84;90.13
75650;BME280;64245;51.282;22.494;2022-11-15T11:22:47;99157.13;;;5.97;89.80
75650;BME280;64245;51.282;22.494;2022-11-15T11:25:28;99127.28;;;5.79;90.94
75650;BME280;64245;51.282;22.494;2022-11-15T11:33:50;99118.13;;;5.60;91.44
75650;BME280;64245;51.282;22.494;2022-11-15T11:36:32;99102.78;;;5.85;91.22
75650;BME280;64245;51.282;22.494;2022-11-15T11:47:42;99083.78;;;6.12;89.23
75650;BME280;64245;51.282;22.494;2022-11-15T11:50:17;99096.16;;;6.13;89.72
75650;BME280;64245;51.282;22.494;2022-11-15T11:55:43;99096.38;;;6.21;90.29
75650;BME280;64245;51.282;22.494;2022-11-15T11:58:33;99093.34;;;6.48;88.60
75650;BME280;64245;51.282;22.494;2022-11-15T12:01:16;99092.72;;;6.00;91.31
75650;BME280;64245;51.282;22.494;2022-11-15T12:04:18;99079.75;;;6.07;90.43
75650;BME280;64245;51.282;22.494;2022-11-15T12:06:52;99096.28;;;6.23;90.16
75650;BME280;64245;51.282;22.494;2022-11-15T12:09:32;99079.38;;;6.34;89.23
75650;BME280;64245;51.282;22.494;2022-11-15T12:12:13;99085.06;;;6.51;88.81
75650;BME280;64245;51.282;22.494;2022-11-15T12:14:55;99072.50;;;6.63;88.65
75650;BME280;64245;51.282;22.494;2022-11-15T12:17:29;99073.59;;;6.72;88.81
75650;BME280;64245;51.282;22.494;2022-11-15T12:20:02;99062.09;;;6.49;88.80
75650;BME280;64245;51.282;22.494;2022-11-15T12:22:49;99074.63;;;6.37;89.72
75650;BME280;64245;51.282;22.494;2022-11-15T12:25:43;99057.38;;;6.30;90.13
75650;BME280;64245;51.282;22.494;2022-11-15T12:28:19;99041.31;;;6.19;91.16
75650;BME280;64245;51.282;22.494;2022-11-15T12:33:44;99053.50;;;6.34;89.54
75650;BME280;64245;51.282;22.494;2022-11-15T12:36:30;99070.75;;;6.08;91.51
75650;BME280;64245;51.282;22.494;2022-11-15T12:39:09;99032.34;;;5.86;91.63
75650;BME280;64245;51.282;22.494;2022-11-15T12:41:41;99044.53;;;6.13;91.23
75650;BME280;64245;51.282;22.494;2022-11-15T12:52:05;99047.91;;;6.04;92.14
75650;BME280;64245;51.282;22.494;2022-11-15T13:02:19;99016.09;;;5.89;92.34
75650;BME280;64245;51.282;22.494;2022-11-15T13:04:47;99012.06;;;5.73;92.43
75650;BME280;64245;51.282;22.494;2022-11-15T13:12:59;99025.94;;;5.89;93.09
75650;BME280;64245;51.282;22.494;2022-11-15T13:17:57;99003.16;;;5.83;93.07
75650;BME280;64245;51.282;22.494;2022-11-15T13:20:27;99012.28;;;5.70;94.09
75650;BME280;64245;51.282;22.494;2022-11-15T13:23:10;99015.94;;;5.69;94.63
75650;BME280;64245;51.282;22.494;2022-11-15T13:26:01;98991.88;;;5.69;92.99
75650;BME280;64245;51.282;22.494;2022-11-15T13:28:31;99015.00;;;5.92;93.26
75650;BME280;64245;51.282;22.494;2022-11-15T13:31:02;99004.88;;;5.73;93.55
75650;BME280;64245;51.282;22.494;2022-11-15T13:33:34;99003.91;;;5.74;94.51
75650;BME280;64245;51.282;22.494;2022-11-15T13:36:23;99003.44;;;6.14;92.04
75650;BME280;64245;51.282;22.494;2022-11-15T13:38:56;99009.28;;;6.08;92.57
75650;BME280;64245;51.282;22.494;2022-11-15T13:41:25;98989.84;;;5.95;92.75
75650;BME280;64245;51.282;22.494;2022-11-15T13:43:53;99003.19;;;6.06;93.24
75650;BME280;64245;51.282;22.494;2022-11-15T13:51:30;98997.88;;;5.95;93.28
75650;BME280;64245;51.282;22.494;2022-11-15T13:54:24;98994.69;;;6.12;92.64
75650;BME280;64245;51.282;22.494;2022-11-15T13:56:56;98989.59;;;6.09;92.91
75650;BME280;64245;51.282;22.494;2022-11-15T14:01:55;98990.44;;;6.09;92.72
75650;BME280;64245;51.282;22.494;2022-11-15T14:04:23;98980.22;;;5.81;93.17
75650;BME280;64245;51.282;22.494;2022-11-15T14:06:57;98984.50;;;5.95;92.98
75650;BME280;64245;51.282;22.494;2022-11-15T14:09:29;98984.72;;;6.03;92.40
75650;BME280;64245;51.282;22.494;2022-11-15T14:11:56;98980.22;;;6.03;92.57
75650;BME280;64245;51.282;22.494;2022-11-15T14:14:28;98981.78;;;5.83;93.29
75650;BME280;64245;51.282;22.494;2022-11-15T14:16:59;98984.59;;;6.04;92.31
75650;BME280;64245;51.282;22.494;2022-11-15T14:22:10;98995.91;;;5.97;92.85
75650;BME280;64245;51.282;22.494;2022-11-15T14:24:37;98988.25;;;5.70;93.98
75650;BME280;64245;51.282;22.494;2022-11-15T14:27:36;98972.94;;;5.61;94.02
75650;BME280;64245;51.282;22.494;2022-11-15T14:30:02;98975.72;;;5.70;94.70
75650;BME280;64245;51.282;22.494;2022-11-15T14:32:30;98966.50;;;5.74;94.07
75650;BME280;64245;51.282;22.494;2022-11-15T14:35:03;98971.84;;;5.74;93.84
75650;BME280;64245;51.282;22.494;2022-11-15T14:37:33;98977.44;;;5.49;94.88
75650;BME280;64245;51.282;22.494;2022-11-15T14:40:04;98968.94;;;5.66;94.57
75650;BME280;64245;51.282;22.494;2022-11-15T14:42:31;98952.19;;;5.53;94.49
75650;BME280;64245;51.282;22.494;2022-11-15T14:44:57;98965.28;;;5.67;94.33
75650;BME280;64245;51.282;22.494;2022-11-15T14:47:23;98970.00;;;5.41;95.24
75650;BME280;64245;51.282;22.494;2022-11-15T14:49:49;98966.28;;;5.55;94.99
75650;BME280;64245;51.282;22.494;2022-11-15T14:52:27;98947.78;;;5.41;95.25
75650;BME280;64245;51.282;22.494;2022-11-15T14:54:54;98949.72;;;5.39;95.00
75650;BME280;64245;51.282;22.494;2022-11-15T14:57:20;98973.16;;;5.46;95.50
75650;BME280;64245;51.282;22.494;2022-11-15T14:59:46;98950.56;;;5.39;95.01
75650;BME280;64245;51.282;22.494;2022-11-15T15:02:18;98948.47;;;4.98;97.34
75650;BME280;64245;51.282;22.494;2022-11-15T15:04:46;98956.03;;;5.27;96.42